Blue Grass Airport
KLEX : now visible

Airfield :











YOU CAN JOIN US ON...

 
LOGIN :

Register | Disclaimer

   EN    FR    IT 

 









Legend :    VFR   Marginal VFR   IFR   Intensive IFR   Very Intensive IFR
Visi :
Ceiling :
>= 8 km
>= 3000ft
5 to 8 km
1000 to 3000 ft
1500m to 5 km
500 to 1000 ft
800 to 1500m
200 to 500 ft
< 800m
< 200 ft
Symbols :   Thunderstorms  Fog  Heavy snow  Heavy precipitations  Wind > 20 kt






- Airport Elevation : 979 ft
- IATA code : LEX


KLEX - Blue Grass

CURRENT METAR :
  • 201654Z 22010KT 10SM OVC013 19/17 A3018 RMK AO2 SLP216 T01940167

EXPIRED METARs :
  • 201554Z 20007KT 10SM OVC013 18/17 A3020 RMK AO2 SLP220 T01830167
  • 201546Z 21008KT 10SM OVC015 18/17 A3020 RMK AO2 T01830167
  • 201539Z 20010KT 10SM BKN013 OVC018 18/16 A3019 RMK AO2 T01780161
  • 201526Z 19012KT 10SM FEW013 BKN019 OVC065 18/16 A3020 RMK AO2 T01780161
  • 201454Z 19008KT 10SM FEW009 SCT018 BKN110 17/16 A3019 RMK AO2 RAE15 SLP218 P0001 60017 T01720161 51006
  • 201441Z 19010KT 10SM FEW009 BKN018 OVC100 17/16 A3019 RMK AO2 RAE15 P0001 T01720161
  • 201418Z 18008KT 10SM SCT021 BKN070 OVC100 17/16 A3019 RMK AO2 RAE15 P0001 T01670156

TAF KLEX
Valid from the 20 at 12:00 until the 21 at 12:00 UTC


201120Z 2012/2112 19005KT 4SM SHRA BR BKN015 OVC035
FM201500 21005KT P6SM OVC015
FM202000 19007KT P6SM OVC025
FM202300 16004KT P6SM SCT025
KZID FIR / North America



MET'MAP, your aeronautical weather chart ! - Copyright ORBIFLY December 2007 - Disclaimer

ORBIFLY MET'MAP TEAM :

Programming & Development : Alexandra Zaïnal
Concept & original design : Baudouin d'Aumeries
Assistance for programming : Marc-Olivier Méhu
Technical & hardware support : Manuel Goepfert

Contact : metmap@orbifly.com




SOURCES & CREDITS :

   NOAA       Earth
Advisory